My webcam more information My webcam


Thunder radar more information blitzortung!


Rain radar more information rain snow radar


Visit our other weather sites:

Template documentation
and downloads

And another site


You find our weather info also at:

Weather Underground

AWEKAS

Citizen Weather Observer Program (CWOP)

HAMweather, WeatherForYou, PWS Weather


Nearby METAR Reports

   
KTAN - Taunton, Massachusetts, USA
Distance from station: W 5 mi
Updated: Oct 23 2018 7:12 pm
Fog, Overcast  
Fog, Overcast  
   Wind: Calm
Wind: Calm
Temperature: 44.6°F
Dew Point: 42.8°F
Humidity: 93%
Barometer: 29.89 inHg
Clouds: Overcast
Visibility: 1 mi
Cloud details: Overcast 1400 ft
KTAN 232312Z AUTO 00000KT 1/2SM FG VV014 07/06 A2989 RMK AO2 LTG DSNT N T00720061
KPYM - Plymouth, Massachusetts, USA
Distance from station: ENE 10 mi
Updated: Oct 23 2018 7:21 pm
Few Clouds  
Few Clouds  
   Wind: WSW 3.5 mph
Wind: WSW 3.5 mph
Temperature: 53.6°F
Dew Point: 48.2°F
Humidity: 82%
Barometer: 29.89 inHg
Clouds: Few Clouds
Visibility: 10 mi
Cloud details: Few Clouds 2400 ft
KPYM 232321Z AUTO 24003KT 10SM FEW024 12/09 A2989 RMK AO2 LTG DSNT N AND NW T01170094
KEWB - New Bedford, Massachusetts, USA
Distance from station: S 14 mi
Updated: Oct 23 2018 6:53 pm
Clear  
Clear  
   Wind: SW 8.1 mph
Wind: SW 8.1 mph
Temperature: 53.6°F
Dew Point: 51.8°F
Humidity: 94%
Barometer: 29.88 inHg
Clouds: Clear
Visibility: 10 mi
Cloud details: Clear
KEWB 232253Z 23007KT 10SM CLR 12/11 A2988 RMK AO2 SLP117 T01170111
KFMH - Falmouth/Otis Ab, Massachusetts, USA
Distance from station: SE 27 mi
Updated: Oct 23 2018 7:15 pm
Thunderstorm, Overcast  
Thunderstorm, Overcast  
   Wind: SSW 11.5 mph
Wind: SSW 11.5 mph
Temperature: 57.2°F
Dew Point: 51.8°F
Humidity: 82%
Barometer: 29.89 inHg
Clouds: Overcast
Visibility: 10 mi
Cloud details: Few Clouds 1800 ft,
Mostly Cloudy 2500 ft,
Overcast 3700 ft
KFMH 232315Z AUTO 20010KT 10SM TS FEW018 BKN025 OVC037 14/11 A2989 RMK AO2 LTG DSNT N AND SE
KBOS - Boston, Massachusetts, USA
Distance from station: N 33 mi
Updated: Oct 23 2018 7:11 pm
Light Thunderstorm, Rain, Overcast  
Light Thunderstorm, Rain, Overcast  
   Wind: NE 4.6 mph
Wind: NE 4.6 mph
Temperature: 51.8°F
Dew Point: 46.4°F
Humidity: 82%
Barometer: 29.92 inHg
Clouds: Overcast
Visibility: 4 mi
Cloud details: Few Clouds 1500 ft,
Mostly Cloudy 3200 ft,
Overcast 5000 ft
KBOS 232311Z 04004KT 4SM -TSRA FEW015 BKN032CB OVC050 11/08 A2992 RMK AO2 OCNL LTGICCCCG NW-N TS NW-N MOV NE P0016 T01060078
KHYA - Hyannis, Massachusetts, USA
Distance from station: ESE 37 mi
Updated: Oct 23 2018 7:24 pm
Mostly Cloudy  
Mostly Cloudy  
   Wind: SSW 11.5 mph
Wind: SSW 11.5 mph
Temperature: 57.2°F
Dew Point: 53.6°F
Humidity: 88%
Barometer: 29.88 inHg
Clouds: Mostly Cloudy
Visibility: 10 mi
Cloud details: Mostly Cloudy 2800 ft
KHYA 232324Z 20010KT 10SM BKN028 14/12 A2988 RMK AO2 LTG DSNT NE LTG DSNT W-N T01440117
KMVY - Marthas Vineyard, Massachusetts, USA
Distance from station: SSE 37 mi
Updated: Oct 23 2018 6:53 pm
Few Clouds  
Few Clouds  
   Wind: SSW 15 mph<br />Gust to 15 mph
Wind: SSW 15 mph
Gust to 15 mph
Temperature: 59°F
Dew Point: 53.6°F
Humidity: 82%
Barometer: 29.89 inHg
Clouds: Few Clouds
Visibility: 10 mi
Cloud details: Few Clouds 2500 ft
KMVY 232253Z 21013G19KT 10SM FEW025 15/12 A2989 RMK AO2 SLP121 T01500117
KCQX - Chatham, Massachusetts, USA
Distance from station: ESE 49 mi
Updated: Oct 23 2018 6:52 pm
Clear  
Clear  
   Wind: South 6.9 mph
Wind: South 6.9 mph
Temperature: 55.4°F
Dew Point: 53.6°F
Humidity: 94%
Barometer: 29.91 inHg
Clouds: Clear
Visibility: 10 mi
Cloud details: Clear
KCQX 232252Z AUTO 18006KT 10SM CLR 13/12 A2991 RMK AO2 SLP129 T01280117
 

Script developed by  Saratoga-weather.org Adapted for the template by  Weerstation Leuven

Equipment we use:

Weather-station
Davis Vantage Vue

Weather-program
Meteobridge

Weather-server
TP-LINK TL-MR3020

Provider
Web Hosting By

Davis Vantage Vue

Meteobridge

TP-LINK TL-MR3020

Web Hosting By